Time;durP1;ratioP1;P1;durP2;ratioP2;P2;SDS_P1;SDS_P2;PMS_P1;PMS_P2;Temp;Humidity;BMP_temperature;BMP_pressure;BME280_temperature;BME280_humidity;BME280_pressure;Samples;Min_cycle;Max_cycle;Signal;HPM_P1;HPM_P2
2022/09/05 00:02:24;;;;;;;4.65;1.45;;;24.40;96.70;;;;;;5000473;28;20056;-80
2022/09/05 00:05:01;;;;;;;5.90;1.58;;;24.30;96.70;;;;;;4997928;28;20094;-81
2022/09/05 00:07:39;;;;;;;4.40;1.75;;;24.30;96.70;;;;;;4971761;28;20404;-81
2022/09/05 00:10:39;;;;;;;3.35;1.33;;;24.20;96.70;;;;;;4968509;28;20662;-80
2022/09/05 00:13:33;;;;;;;4.50;1.52;;;24.20;96.70;;;;;;4996329;28;20212;-79
2022/09/05 00:16:19;;;;;;;3.97;1.65;;;24.20;96.70;;;;;;5036816;28;20502;-79
2022/09/05 00:19:04;;;;;;;1.95;1.40;;;24.10;96.70;;;;;;5042165;28;20044;-80
2022/09/05 00:22:08;;;;;;;3.80;1.75;;;24.20;96.70;;;;;;5046835;28;20175;-79
2022/09/05 00:25:07;;;;;;;3.05;1.23;;;24.10;96.70;;;;;;5040069;28;20051;-79
2022/09/05 00:28:04;;;;;;;4.28;1.33;;;24.10;96.70;;;;;;5043448;28;20037;-78
2022/09/05 00:31:16;;;;;;;3.35;1.30;;;24.10;96.70;;;;;;5040436;28;20388;-79
2022/09/05 00:34:17;;;;;;;3.47;1.10;;;24.10;96.70;;;;;;5044481;28;20708;-79
2022/09/05 00:36:47;;;;;;;2.25;1.02;;;24.00;96.70;;;;;;5042821;28;20044;-80
2022/09/05 00:39:20;;;;;;;4.00;1.20;;;24.00;96.70;;;;;;5041953;28;20565;-79
2022/09/05 00:41:51;;;;;;;4.38;1.48;;;23.90;96.70;;;;;;5034980;28;20041;-79
2022/09/05 00:44:25;;;;;;;5.75;1.42;;;24.00;96.70;;;;;;5040487;28;20347;-80
2022/09/05 00:47:02;;;;;;;2.08;1.30;;;24.00;96.70;;;;;;5043668;28;20506;-79
2022/09/05 00:49:38;;;;;;;3.25;1.20;;;24.00;96.70;;;;;;5045919;28;20441;-78
2022/09/05 00:52:14;;;;;;;6.82;1.08;;;24.00;96.70;;;;;;5037621;28;20063;-78
2022/09/05 00:55:04;;;;;;;4.82;1.10;;;23.90;96.70;;;;;;5037966;28;20524;-78
2022/09/05 00:57:49;;;;;;;3.05;1.38;;;23.90;96.70;;;;;;5041205;28;20037;-78
2022/09/05 01:00:21;;;;;;;3.58;1.10;;;23.80;96.70;;;;;;5044015;28;20114;-79
2022/09/05 01:03:20;;;;;;;4.25;1.42;;;23.90;96.70;;;;;;5041988;28;20049;-78
2022/09/05 01:06:11;;;;;;;4.72;1.42;;;23.90;96.70;;;;;;5036047;28;20063;-78
2022/09/05 01:09:02;;;;;;;3.17;0.93;;;23.90;96.70;;;;;;5041839;28;20422;-78
2022/09/05 01:11:46;;;;;;;5.50;1.17;;;23.90;96.70;;;;;;5043335;28;20040;-79
2022/09/05 01:14:36;;;;;;;4.63;1.33;;;23.90;96.70;;;;;;5025005;28;20108;-78
2022/09/05 01:17:19;;;;;;;2.97;1.20;;;23.80;96.70;;;;;;5041412;28;20064;-78
2022/09/05 01:20:11;;;;;;;4.15;1.17;;;23.70;96.70;;;;;;5040673;28;20064;-79
2022/09/05 01:23:14;;;;;;;6.07;1.25;;;23.60;96.70;;;;;;5039669;28;20404;-80
2022/09/05 01:26:08;;;;;;;4.50;1.10;;;23.70;96.70;;;;;;5043585;28;20037;-78
2022/09/05 01:28:43;;;;;;;2.58;1.10;;;23.60;96.70;;;;;;5039239;28;20051;-78
2022/09/05 01:31:39;;;;;;;3.20;1.08;;;23.60;96.70;;;;;;5043067;28;20660;-78
2022/09/05 01:34:19;;;;;;;2.95;0.98;;;23.80;96.70;;;;;;5046345;28;20045;-80
2022/09/05 01:37:06;;;;;;;3.55;1.20;;;23.50;96.70;;;;;;5041582;28;20136;-79
2022/09/05 01:40:06;;;;;;;4.28;1.73;;;23.20;96.70;;;;;;5037448;28;20487;-79
2022/09/05 01:42:55;;;;;;;4.00;1.15;;;23.10;96.70;;;;;;5028346;28;20045;-78
2022/09/05 01:45:39;;;;;;;2.95;1.10;;;23.20;96.70;;;;;;5031733;28;20068;-80
2022/09/05 01:48:25;;;;;;;7.78;1.73;;;23.20;96.70;;;;;;5043900;28;20051;-80
2022/09/05 01:51:08;;;;;;;6.13;1.33;;;23.40;96.70;;;;;;5055057;28;20064;-78
2022/09/05 01:54:06;;;;;;;4.40;1.63;;;23.30;96.70;;;;;;5039778;28;20040;-79
2022/09/05 01:57:06;;;;;;;4.72;1.17;;;23.20;96.70;;;;;;5035091;28;20052;-79
2022/09/05 01:59:47;;;;;;;2.75;1.63;;;23.30;96.70;;;;;;5042474;28;20045;-79
2022/09/05 02:02:35;;;;;;;3.22;1.55;;;23.30;96.70;;;;;;5039731;28;20114;-78
2022/09/05 02:05:50;;;;;;;4.35;1.27;;;23.30;96.70;;;;;;5041522;28;20470;-80
2022/09/05 02:08:42;;;;;;;2.28;1.20;;;22.70;96.70;;;;;;5022076;28;20056;-78
2022/09/05 02:11:22;;;;;;;3.50;1.33;;;22.70;96.70;;;;;;5042447;28;20084;-79
2022/09/05 02:14:17;;;;;;;4.38;1.25;;;23.00;96.70;;;;;;5042552;28;20049;-78
2022/09/05 02:17:15;;;;;;;4.28;1.40;;;23.00;96.70;;;;;;5035389;28;20452;-78
2022/09/05 02:20:13;;;;;;;3.30;1.13;;;23.20;96.70;;;;;;5026334;28;20056;-79
2022/09/05 02:23:01;;;;;;;4.90;1.38;;;23.20;96.70;;;;;;5034241;28;20095;-79
2022/09/05 02:25:39;;;;;;;6.35;1.98;;;23.20;96.70;;;;;;5040605;28;20502;-79
2022/09/05 02:28:35;;;;;;;3.53;1.52;;;23.30;96.70;;;;;;5034962;28;20053;-78
2022/09/05 02:31:12;;;;;;;5.90;1.40;;;23.30;96.70;;;;;;5042841;28;20605;-80
2022/09/05 02:33:53;;;;;;;3.42;1.58;;;23.30;96.70;;;;;;5041669;28;20051;-78
2022/09/05 02:36:37;;;;;;;4.97;1.33;;;23.20;96.70;;;;;;5042904;28;20052;-79
2022/09/05 02:39:08;;;;;;;;;;;23.10;96.70;;;;;;5038090;28;20052;-79
2022/09/05 02:42:00;;;;;;;4.32;1.42;;;23.10;96.70;;;;;;5034650;28;20459;-78
2022/09/05 02:45:04;;;;;;;8.95;1.70;;;23.00;96.70;;;;;;5027054;28;20536;-80
2022/09/05 02:48:01;;;;;;;7.60;1.70;;;22.90;96.70;;;;;;5031822;28;20124;-78
2022/09/05 02:50:50;;;;;;;5.35;1.52;;;22.80;96.70;;;;;;5042383;28;20079;-78
2022/09/05 02:53:43;;;;;;;3.05;1.40;;;22.80;96.70;;;;;;5042693;28;20060;-78
2022/09/05 02:56:49;;;;;;;4.32;1.80;;;22.80;96.70;;;;;;5041545;28;20049;-78
2022/09/05 03:00:03;;;;;;;5.50;2.10;;;22.80;96.70;;;;;;5041417;28;20045;-79
2022/09/05 03:02:43;;;;;;;3.50;1.55;;;22.70;96.70;;;;;;5040899;28;20671;-79
2022/09/05 03:05:19;;;;;;;4.90;1.58;;;22.80;96.70;;;;;;5042011;28;20041;-79
2022/09/05 03:08:19;;;;;;;7.57;2.30;;;22.70;96.70;;;;;;5041359;28;20040;-79
2022/09/05 03:11:29;;;;;;;5.28;1.75;;;22.60;96.70;;;;;;5034813;28;20049;-78
2022/09/05 03:14:29;;;;;;;5.72;1.65;;;22.70;96.70;;;;;;5030624;28;20595;-79
2022/09/05 03:17:39;;;;;;;5.15;1.88;;;22.60;96.70;;;;;;5020560;28;20099;-78
2022/09/05 03:20:50;;;;;;;8.23;1.90;;;22.60;96.70;;;;;;5042387;28;20049;-83
2022/09/05 03:23:40;;;;;;;5.05;2.20;;;22.50;96.70;;;;;;5035832;28;20060;-83
2022/09/05 03:26:32;;;;;;;2.95;1.30;;;22.30;96.70;;;;;;5040220;28;20095;-81
2022/09/05 03:29:33;;;;;;;2.90;1.58;;;22.30;96.70;;;;;;5046268;28;20249;-82
2022/09/05 03:32:28;;;;;;;4.47;1.48;;;22.40;96.70;;;;;;5041277;28;20041;-77
2022/09/05 03:35:32;;;;;;;4.82;1.35;;;22.30;96.70;;;;;;5038388;28;20076;-78
2022/09/05 03:38:26;;;;;;;12.45;2.08;;;22.40;96.70;;;;;;5035646;28;20153;-86
2022/09/05 03:41:07;;;;;;;4.35;1.85;;;22.40;96.70;;;;;;5010152;28;20049;-80
2022/09/05 03:43:52;;;;;;;3.88;1.63;;;22.40;96.70;;;;;;5049429;28;20051;-80
2022/09/05 03:46:32;;;;;;;2.28;1.30;;;22.40;96.70;;;;;;5044267;28;20057;-83
2022/09/05 03:49:30;;;;;;;2.10;1.30;;;22.40;96.70;;;;;;5039070;28;20051;-79
2022/09/05 03:52:30;;;;;;;3.08;1.33;;;22.40;96.70;;;;;;5036200;28;20060;-81
2022/09/05 03:55:39;;;;;;;4.25;1.58;;;22.40;96.70;;;;;;5043734;28;20037;-80
2022/09/05 03:59:14;;;;;;;4.75;2.10;;;22.50;96.70;;;;;;5044786;28;20033;-82
2022/09/05 04:01:46;;;;;;;6.35;1.60;;;22.30;96.70;;;;;;4944846;28;20055;-80
2022/09/05 04:04:42;;;;;;;2.78;1.30;;;22.40;96.70;;;;;;4944637;28;20125;-81
2022/09/05 04:07:37;;;;;;;4.70;1.60;;;22.40;96.70;;;;;;5025941;28;20059;-80
2022/09/05 04:10:30;;;;;;;3.30;1.50;;;22.40;96.70;;;;;;5045200;28;20045;-81
2022/09/05 04:13:04;;;;;;;4.55;1.58;;;22.40;96.70;;;;;;5045173;28;20052;-80
2022/09/05 04:15:39;;;;;;;5.20;1.35;;;22.40;96.70;;;;;;5039817;28;20414;-80
2022/09/05 04:18:21;;;;;;;3.20;1.10;;;22.40;96.70;;;;;;5046832;28;20056;-82
2022/09/05 04:21:07;;;;;;;4.90;1.38;;;22.30;96.70;;;;;;5024921;28;20482;-82
2022/09/05 04:23:45;;;;;;;3.17;1.10;;;22.20;96.70;;;;;;5045797;28;20052;-82
2022/09/05 04:26:34;;;;;;;3.42;1.40;;;22.10;96.70;;;;;;5046749;28;20057;-82
2022/09/05 04:29:14;;;;;;;2.17;1.38;;;22.10;96.70;;;;;;5046303;28;20037;-80
2022/09/05 04:31:48;;;;;;;2.90;1.40;;;22.20;96.70;;;;;;5046689;28;20048;-82
2022/09/05 04:34:49;;;;;;;1.42;1.30;;;22.10;96.70;;;;;;5046918;28;21732;-82
2022/09/05 04:37:35;;;;;;;4.97;1.70;;;22.10;96.70;;;;;;5046116;28;20041;-82
2022/09/05 04:40:36;;;;;;;4.57;1.73;;;22.10;96.70;;;;;;5042613;28;20040;-82
2022/09/05 04:43:07;;;;;;;4.85;1.30;;;22.00;96.70;;;;;;5032562;28;20049;-82
2022/09/05 04:45:41;;;;;;;2.65;1.40;;;22.10;96.70;;;;;;5047402;28;20040;-82
2022/09/05 04:48:12;;;;;;;5.15;1.60;;;22.20;96.70;;;;;;5047617;28;20091;-83
2022/09/05 04:51:04;;;;;;;3.33;1.30;;;22.20;96.70;;;;;;5039387;28;20049;-83
2022/09/05 04:54:08;;;;;;;5.82;1.70;;;22.10;96.70;;;;;;5039308;28;20061;-82
2022/09/05 04:56:42;;;;;;;3.50;1.52;;;22.10;96.70;;;;;;5046467;28;20056;-84
2022/09/05 04:59:16;;;;;;;4.85;1.52;;;22.20;96.70;;;;;;5043294;28;20127;-82
2022/09/05 05:02:13;;;;;;;5.55;1.80;;;22.20;96.70;;;;;;5030586;28;20098;-83
2022/09/05 05:05:05;;;;;;;6.00;1.60;;;22.20;96.70;;;;;;5040316;28;20080;-82
2022/09/05 05:07:58;;;;;;;2.53;1.70;;;22.20;96.70;;;;;;5045673;28;20048;-82
2022/09/05 05:10:36;;;;;;;7.45;2.05;;;22.10;96.70;;;;;;5046530;28;20054;-82
2022/09/05 05:13:30;;;;;;;12.80;1.98;;;22.10;96.70;;;;;;5043328;28;20438;-83
2022/09/05 05:16:22;;;;;;;9.10;2.15;;;22.20;96.70;;;;;;5042692;28;20412;-81
2022/09/05 05:19:18;;;;;;;11.43;2.45;;;22.30;96.70;;;;;;5038879;28;20045;-82
2022/09/05 05:21:51;;;;;;;2.90;1.50;;;22.30;96.70;;;;;;5045475;28;20045;-81
2022/09/05 05:24:23;;;;;;;6.45;1.95;;;22.30;96.70;;;;;;5025704;28;20048;-81
2022/09/05 05:27:03;;;;;;;7.25;2.03;;;22.40;96.70;;;;;;5044472;28;20041;-82
2022/09/05 05:29:42;;;;;;;10.13;1.80;;;22.20;96.70;;;;;;5044121;28;20441;-82
2022/09/05 05:32:18;;;;;;;6.03;2.15;;;22.20;96.70;;;;;;5024896;28;20053;-80
2022/09/05 05:35:09;;;;;;;4.80;1.83;;;22.30;96.70;;;;;;5044332;28;20048;-82
2022/09/05 05:37:43;;;;;;;3.83;1.92;;;22.40;96.70;;;;;;5044601;28;20045;-82
2022/09/05 05:40:20;;;;;;;7.88;2.38;;;22.40;96.70;;;;;;5046338;28;20044;-82
2022/09/05 05:42:51;;;;;;;3.45;1.80;;;22.30;96.70;;;;;;5037213;28;20052;-82
2022/09/05 05:45:24;;;;;;;9.57;2.95;;;22.30;96.70;;;;;;5043026;28;20052;-83
2022/09/05 05:47:55;;;;;;;6.75;2.17;;;22.30;96.70;;;;;;5046190;28;20041;-82
2022/09/05 05:50:35;;;;;;;9.55;2.75;;;22.30;96.70;;;;;;5046267;28;20084;-82
2022/09/05 05:53:27;;;;;;;5.53;2.40;;;22.40;96.70;;;;;;5036781;28;20045;-82
2022/09/05 05:56:34;;;;;;;8.02;2.45;;;22.50;96.70;;;;;;5037048;28;20076;-82
2022/09/05 05:59:14;;;;;;;7.60;2.90;;;22.60;96.70;;;;;;5045678;28;20098;-83
2022/09/05 06:02:15;;;;;;;5.57;2.20;;;22.60;96.70;;;;;;5039295;28;21303;-82
2022/09/05 06:05:21;;;;;;;4.72;2.40;;;22.60;96.70;;;;;;5024561;28;20053;-84
2022/09/05 06:08:02;;;;;;;2.95;2.10;;;22.60;96.70;;;;;;5036711;28;20123;-81
2022/09/05 06:11:37;;;;;;;5.90;2.10;;;22.70;96.70;;;;;;5043536;28;20047;-83
2022/09/05 06:14:58;;;;;;;3.80;2.05;;;22.70;96.70;;;;;;4987155;28;20073;-83
2022/09/05 06:18:35;;;;;;;6.30;2.28;;;22.70;96.70;;;;;;5053516;28;20499;-83
2022/09/05 06:21:41;;;;;;;5.72;2.30;;;22.70;96.70;;;;;;4962599;28;20058;-82
2022/09/05 06:25:05;;;;;;;5.75;2.78;;;22.80;96.70;;;;;;5033551;28;20540;-82
2022/09/05 06:28:06;;;;;;;8.48;2.45;;;22.90;96.70;;;;;;5059251;28;20057;-81
2022/09/05 06:30:58;;;;;;;6.50;2.63;;;23.00;96.70;;;;;;5043074;28;20092;-82
2022/09/05 06:34:07;;;;;;;5.55;2.83;;;23.10;96.70;;;;;;5039307;28;20041;-82
2022/09/05 06:37:03;;;;;;;4.20;2.17;;;23.10;96.70;;;;;;5039037;28;20047;-82
2022/09/05 06:39:57;;;;;;;5.88;2.30;;;23.20;96.70;;;;;;5039889;28;20106;-81
2022/09/05 06:42:34;;;;;;;4.05;2.45;;;23.10;96.70;;;;;;5035551;28;20172;-81
2022/09/05 06:45:48;;;;;;;4.45;2.40;;;23.00;96.70;;;;;;5039136;28;20049;-81
2022/09/05 06:48:30;;;;;;;5.85;2.60;;;23.00;96.70;;;;;;5034303;28;20045;-83
2022/09/05 06:51:51;;;;;;;8.02;2.53;;;23.00;96.70;;;;;;5043291;28;20080;-82
2022/09/05 06:55:18;;;;;;;8.13;2.63;;;23.00;96.70;;;;;;5030771;28;20111;-82
2022/09/05 06:58:19;;;;;;;8.43;2.22;;;23.20;96.70;;;;;;5037194;28;20053;-81
2022/09/05 07:00:49;;;;;;;5.78;2.53;;;23.40;96.70;;;;;;5042882;28;20052;-82
2022/09/05 07:03:25;;;;;;;3.70;2.40;;;23.40;96.70;;;;;;5040324;28;20042;-81
2022/09/05 07:05:55;;;;;;;;;;;23.50;96.70;;;;;;5045229;28;20123;-81
2022/09/05 07:08:35;;;;;;;4.40;2.35;;;23.60;96.70;;;;;;5043323;28;20283;-82
2022/09/05 07:11:09;;;;;;;3.28;2.05;;;23.70;96.70;;;;;;5044015;28;20208;-82
2022/09/05 07:14:00;;;;;;;6.72;2.50;;;23.70;96.70;;;;;;5037857;28;20644;-82
2022/09/05 07:16:49;;;;;;;3.83;2.33;;;23.70;96.70;;;;;;5038195;28;20060;-82
2022/09/05 07:19:26;;;;;;;3.03;2.40;;;23.60;96.70;;;;;;5045409;28;20057;-80
2022/09/05 07:22:03;;;;;;;;;;;23.70;96.70;;;;;;5045865;28;20570;-83
2022/09/05 07:24:37;;;;;;;3.95;2.20;;;23.80;96.70;;;;;;5042824;28;20370;-82
2022/09/05 07:27:33;;;;;;;6.57;2.65;;;23.80;96.70;;;;;;5043005;28;20076;-82
2022/09/05 07:30:21;;;;;;;4.95;2.45;;;24.00;96.70;;;;;;5049254;28;20037;-83
2022/09/05 07:32:52;;;;;;;6.38;2.35;;;24.10;96.70;;;;;;5042438;28;20068;-83
2022/09/05 07:35:24;;;;;;;7.07;2.72;;;24.20;96.70;;;;;;5046538;28;20369;-83
2022/09/05 07:38:01;;;;;;;5.82;2.88;;;24.30;96.70;;;;;;5025105;28;20095;-82
2022/09/05 07:40:34;;;;;;;3.72;2.42;;;24.40;96.70;;;;;;5029620;28;20060;-82
2022/09/05 07:43:06;;;;;;;4.80;2.60;;;24.50;96.70;;;;;;5047933;28;20049;-82
2022/09/05 07:45:44;;;;;;;7.90;3.67;;;24.50;96.70;;;;;;5041215;28;20077;-82
2022/09/05 07:48:26;;;;;;;3.85;2.40;;;24.50;96.70;;;;;;5044360;28;20132;-83
2022/09/05 07:51:06;;;;;;;4.43;2.25;;;24.60;96.70;;;;;;5037638;28;20042;-83
2022/09/05 07:53:57;;;;;;;12.32;3.60;;;24.70;96.70;;;;;;5040467;28;20049;-82
2022/09/05 07:56:50;;;;;;;3.10;2.72;;;24.70;96.70;;;;;;5061256;28;20049;-83
2022/09/05 07:59:39;;;;;;;5.78;2.58;;;24.90;96.70;;;;;;5035672;28;20045;-82
2022/09/05 08:02:10;;;;;;;4.28;2.30;;;24.90;96.70;;;;;;5030863;28;20086;-82
2022/09/05 08:04:40;;;;;;;3.33;2.38;;;25.00;96.70;;;;;;5048476;28;20406;-82
2022/09/05 08:07:16;;;;;;;3.92;2.17;;;25.00;96.70;;;;;;5045552;28;20130;-82
2022/09/05 08:10:10;;;;;;;3.97;2.45;;;25.00;96.70;;;;;;5028232;28;20053;-82
2022/09/05 08:12:48;;;;;;;3.10;2.05;;;25.10;96.70;;;;;;5048345;28;20080;-82
2022/09/05 08:15:38;;;;;;;5.45;2.55;;;25.20;96.70;;;;;;5043029;28;20140;-82
2022/09/05 08:18:35;;;;;;;3.50;2.55;;;25.30;96.70;;;;;;5047033;28;20601;-83
2022/09/05 08:21:09;;;;;;;3.08;2.38;;;25.40;96.70;;;;;;5040512;28;20110;-83
2022/09/05 08:23:50;;;;;;;3.83;2.25;;;25.40;96.70;;;;;;5048964;28;20124;-82
2022/09/05 08:26:33;;;;;;;5.57;2.40;;;25.60;96.70;;;;;;5035766;28;20056;-83
2022/09/05 08:29:10;;;;;;;5.53;2.88;;;25.60;96.70;;;;;;5038827;28;20511;-82
2022/09/05 08:31:41;;;;;;;6.72;2.50;;;25.70;96.70;;;;;;5049171;28;20045;-83
2022/09/05 08:34:14;;;;;;;4.53;2.35;;;25.80;96.70;;;;;;5025411;28;20053;-82
2022/09/05 08:36:47;;;;;;;2.97;2.35;;;25.80;96.70;;;;;;5046697;28;20049;-82
2022/09/05 08:39:19;;;;;;;3.97;1.95;;;25.80;96.70;;;;;;5046029;28;20087;-83
2022/09/05 08:42:13;;;;;;;4.95;2.60;;;25.80;96.70;;;;;;5046118;28;20073;-82
2022/09/05 08:44:54;;;;;;;4.63;2.58;;;25.80;96.70;;;;;;5059677;28;20053;-82
2022/09/05 08:47:52;;;;;;;3.92;2.40;;;25.90;96.70;;;;;;5045624;28;20055;-82
2022/09/05 08:50:42;;;;;;;3.45;2.40;;;26.00;96.70;;;;;;5046696;28;20036;-82
2022/09/05 08:53:19;;;;;;;4.90;2.45;;;26.00;96.70;;;;;;5043843;28;20072;-82
2022/09/05 08:56:14;;;;;;;6.73;2.57;;;26.20;96.70;;;;;;5037797;28;20460;-82
2022/09/05 08:58:59;;;;;;;4.50;1.92;;;26.40;96.70;;;;;;5045356;28;20049;-82
2022/09/05 09:02:03;;;;;;;4.38;2.40;;;26.50;96.70;;;;;;5036381;28;20488;-83
2022/09/05 09:05:10;;;;;;;4.18;2.40;;;26.60;96.70;;;;;;5023809;28;20042;-82
2022/09/05 09:07:48;;;;;;;3.25;2.33;;;26.60;96.70;;;;;;5045027;28;20568;-82
2022/09/05 09:10:45;;;;;;;5.57;2.25;;;26.70;96.70;;;;;;5046087;28;20072;-82
2022/09/05 09:13:24;;;;;;;2.97;2.15;;;26.80;96.70;;;;;;5044166;28;20058;-82
2022/09/05 09:15:59;;;;;;;4.07;2.47;;;26.80;96.70;;;;;;5044766;28;20502;-83
2022/09/05 09:19:00;;;;;;;3.60;2.22;;;26.90;96.70;;;;;;5045278;28;20052;-82
2022/09/05 09:21:37;;;;;;;3.78;2.30;;;26.90;96.70;;;;;;5040171;28;20056;-82
2022/09/05 09:24:22;;;;;;;4.57;2.28;;;26.90;96.70;;;;;;5045787;28;20060;-82
2022/09/05 09:27:00;;;;;;;3.55;2.05;;;27.00;96.70;;;;;;5038921;28;20072;-83
2022/09/05 09:29:58;;;;;;;4.15;2.45;;;27.20;96.70;;;;;;5045432;28;20045;-82
2022/09/05 09:32:27;;;;;;;2.97;2.00;;;27.30;96.70;;;;;;5047753;28;20044;-82
2022/09/05 09:35:03;;;;;;;2.58;2.10;;;27.30;96.70;;;;;;5045042;28;20491;-83
2022/09/05 09:38:25;;;;;;;4.65;2.00;;;27.30;96.70;;;;;;5042967;28;20067;-82
2022/09/05 09:41:32;;;;;;;3.28;2.20;;;27.40;96.70;;;;;;5041128;28;20045;-82
2022/09/05 09:44:51;;;;;;;4.30;1.90;;;27.60;96.70;;;;;;5042713;28;20044;-83
2022/09/05 09:47:30;;;;;;;3.38;2.00;;;27.90;96.70;;;;;;5039305;28;20292;-82
2022/09/05 09:50:30;;;;;;;5.05;1.80;;;27.90;96.70;;;;;;5043944;28;20435;-82
2022/09/05 09:53:23;;;;;;;4.18;2.17;;;28.10;96.70;;;;;;5046088;28;20063;-82
2022/09/05 09:56:36;;;;;;;3.55;2.10;;;28.40;96.70;;;;;;5044108;28;20067;-82
2022/09/05 09:59:38;;;;;;;3.28;2.00;;;28.30;96.70;;;;;;5041033;28;20041;-82
2022/09/05 10:02:48;;;;;;;3.70;1.80;;;28.40;96.70;;;;;;5038450;28;20053;-82
2022/09/05 10:06:03;;;;;;;3.22;1.80;;;28.30;96.70;;;;;;5042695;28;20506;-80
2022/09/05 10:09:10;;;;;;;2.88;2.13;;;28.20;96.70;;;;;;5036569;28;20052;-80
2022/09/05 10:12:31;;;;;;;4.00;2.22;;;28.40;96.70;;;;;;5042354;28;20071;-80
2022/09/05 10:15:02;;;;;;;2.30;1.90;;;28.70;96.70;;;;;;5036048;28;20049;-80
2022/09/05 10:18:32;;;;;;;3.88;2.05;;;28.90;96.70;;;;;;5042793;28;20107;-79
2022/09/05 10:21:31;;;;;;;2.50;1.92;;;29.10;96.70;;;;;;5041582;28;20147;-80
2022/09/05 10:24:38;;;;;;;4.57;1.85;;;29.20;96.70;;;;;;5038121;28;20049;-88
2022/09/05 10:27:37;;;;;;;3.45;2.25;;;29.30;96.70;;;;;;5022200;28;20089;-85
2022/09/05 10:30:18;;;;;;;3.55;1.90;;;29.30;96.70;;;;;;5042855;28;20063;-82
2022/09/05 10:33:28;;;;;;;4.15;1.85;;;29.40;96.70;;;;;;5038019;28;20098;-79
2022/09/05 10:36:23;;;;;;;2.78;1.73;;;29.70;96.70;;;;;;5036450;28;20099;-84
2022/09/05 10:39:06;;;;;;;2.72;1.70;;;29.70;96.70;;;;;;5042747;28;20570;-81
2022/09/05 10:41:48;;;;;;;2.08;1.52;;;29.90;96.70;;;;;;5024948;28;20045;-85
2022/09/05 10:44:25;;;;;;;6.72;1.98;;;30.00;96.70;;;;;;5032608;28;20049;-86
2022/09/05 10:47:04;;;;;;;4.43;1.50;;;30.00;96.70;;;;;;5041802;28;20130;-83
2022/09/05 10:49:37;;;;;;;3.67;1.85;;;30.10;96.70;;;;;;5042327;28;20045;-84
2022/09/05 10:52:11;;;;;;;3.97;1.85;;;30.10;96.70;;;;;;5047215;28;20132;-84
2022/09/05 10:55:08;;;;;;;3.80;1.70;;;30.10;96.70;;;;;;5042826;28;20498;-85
2022/09/05 10:57:55;;;;;;;3.40;1.85;;;30.00;96.70;;;;;;5032456;28;20552;-84
2022/09/05 11:00:42;;;;;;;3.88;2.00;;;30.20;96.70;;;;;;5035746;28;20045;-82
2022/09/05 11:03:44;;;;;;;4.13;1.55;;;30.40;96.70;;;;;;5028796;28;20056;-82
2022/09/05 11:06:17;;;;;;;5.75;1.75;;;30.60;96.70;;;;;;5033620;28;20053;-84
2022/09/05 11:09:03;;;;;;;2.75;1.20;;;30.70;96.70;;;;;;5037398;28;20053;-83
2022/09/05 11:11:44;;;;;;;2.45;1.52;;;30.60;96.70;;;;;;5044953;28;20045;-84
2022/09/05 11:14:34;;;;;;;4.55;1.75;;;30.70;96.70;;;;;;5036677;28;20067;-83
2022/09/05 11:17:11;;;;;;;3.55;1.40;;;30.80;96.70;;;;;;5045125;28;20053;-86
2022/09/05 11:19:42;;;;;;;4.45;2.20;;;30.90;96.70;;;;;;5023624;28;20049;-83
2022/09/05 11:22:14;;;;;;;4.85;2.33;;;30.90;96.70;;;;;;5040719;28;20050;-84
2022/09/05 11:24:56;;;;;;;4.10;1.70;;;31.00;96.70;;;;;;5036549;28;20063;-86
2022/09/05 11:27:32;;;;;;;2.60;1.27;;;30.90;96.70;;;;;;5036955;28;21622;-83
2022/09/05 11:30:02;;;;;;;;;;;31.00;96.70;;;;;;5041684;28;20049;-81
2022/09/05 11:33:00;;;;;;;4.25;1.45;;;31.20;96.70;;;;;;5041980;28;20414;-81
2022/09/05 11:35:53;;;;;;;4.60;1.40;;;31.10;96.70;;;;;;5037213;28;20144;-83
2022/09/05 11:39:09;;;;;;;4.28;1.70;;;31.40;96.70;;;;;;5042383;28;20049;-81
2022/09/05 11:42:26;;;;;;;4.35;1.55;;;31.70;96.70;;;;;;5038664;28;20053;-79
2022/09/05 11:45:30;;;;;;;4.80;1.88;;;31.60;96.70;;;;;;5031849;28;20656;-81
2022/09/05 11:48:36;;;;;;;13.00;2.15;;;31.80;96.70;;;;;;5025954;28;20068;-82
2022/09/05 11:51:42;;;;;;;3.58;1.42;;;31.90;96.70;;;;;;5021248;28;20662;-79
2022/09/05 11:54:46;;;;;;;4.50;1.98;;;31.40;96.70;;;;;;5038297;28;20064;-78
2022/09/05 11:57:59;;;;;;;6.00;1.90;;;31.30;96.70;;;;;;5041713;28;20060;-78
2022/09/05 12:00:57;;;;;;;4.30;1.30;;;31.30;96.70;;;;;;5059551;28;20056;-78
2022/09/05 12:04:20;;;;;;;3.00;1.70;;;31.50;96.70;;;;;;5043136;28;20040;-79
2022/09/05 12:07:08;;;;;;;4.50;1.73;;;31.70;96.70;;;;;;5062463;28;20144;-79
2022/09/05 12:10:11;;;;;;;1.98;1.25;;;31.70;96.70;;;;;;5063046;28;20064;-79
2022/09/05 12:13:24;;;;;;;3.28;1.40;;;31.50;96.70;;;;;;5050867;28;20071;-79
2022/09/05 12:16:24;;;;;;;3.05;1.20;;;31.50;96.70;;;;;;5060933;28;20095;-79
2022/09/05 12:19:26;;;;;;;1.92;1.15;;;31.90;96.70;;;;;;5043436;28;20047;-79
2022/09/05 12:22:27;;;;;;;3.95;1.50;;;32.10;96.70;;;;;;5040292;28;20422;-79
2022/09/05 12:25:22;;;;;;;1.85;1.10;;;32.50;96.70;;;;;;5033704;28;20058;-79
2022/09/05 12:28:21;;;;;;;3.05;1.30;;;32.60;96.70;;;;;;5044530;28;20151;-79
2022/09/05 12:31:17;;;;;;;3.97;1.27;;;32.50;96.70;;;;;;5028831;28;20516;-79
2022/09/05 12:34:11;;;;;;;4.10;1.20;;;32.40;96.70;;;;;;5046978;28;20049;-79
2022/09/05 12:37:02;;;;;;;3.15;1.40;;;32.60;96.70;;;;;;5046270;28;20512;-79
2022/09/05 12:39:54;;;;;;;5.97;1.70;;;32.70;96.70;;;;;;5043029;28;20099;-79
2022/09/05 12:42:53;;;;;;;3.53;1.13;;;32.80;96.70;;;;;;5044366;28;20041;-78
2022/09/05 12:45:48;;;;;;;3.50;1.50;;;32.90;96.70;;;;;;5043406;28;20052;-78
2022/09/05 12:48:22;;;;;;;2.60;1.40;;;33.10;96.70;;;;;;5041966;28;20053;-79
2022/09/05 12:51:08;;;;;;;3.53;1.40;;;32.90;96.70;;;;;;5044622;28;20582;-79
2022/09/05 12:53:42;;;;;;;2.97;1.30;;;32.70;96.70;;;;;;5041697;28;20068;-79
2022/09/05 12:56:19;;;;;;;4.60;1.40;;;32.70;96.70;;;;;;5044636;28;20049;-79
2022/09/05 12:59:14;;;;;;;;;;;32.60;96.70;;;;;;5043426;28;20486;-79
2022/09/05 13:02:08;;;;;;;1.92;1.23;;;32.50;96.70;;;;;;5030758;28;19948;-76
2022/09/05 13:05:00;;;;;;;3.28;1.20;;;32.40;96.70;;;;;;5043621;28;20116;-79
2022/09/05 13:07:37;;;;;;;3.15;1.48;;;32.40;96.70;;;;;;5040877;28;20044;-79
2022/09/05 13:10:14;;;;;;;5.07;1.52;;;32.50;96.70;;;;;;5043632;28;20128;-79
2022/09/05 13:13:08;;;;;;;2.55;1.20;;;32.70;96.70;;;;;;5044350;28;20129;-76
2022/09/05 13:15:58;;;;;;;4.97;1.42;;;33.00;96.70;;;;;;5045547;28;20045;-77
2022/09/05 13:18:36;;;;;;;4.97;1.20;;;33.20;96.70;;;;;;5042485;28;20513;-76
2022/09/05 13:21:09;;;;;;;2.78;1.08;;;33.40;96.70;;;;;;5037107;28;20145;-77
2022/09/05 13:23:45;;;;;;;3.22;1.83;;;33.40;96.70;;;;;;5045403;28;20060;-76
2022/09/05 13:26:22;;;;;;;3.50;1.20;;;33.50;96.70;;;;;;5040793;28;20676;-77
2022/09/05 13:28:55;;;;;;;5.22;1.38;;;33.50;96.70;;;;;;5040474;28;20490;-76
2022/09/05 13:32:01;;;;;;;2.05;1.17;;;33.40;96.70;;;;;;5041518;28;20528;-76
2022/09/05 13:34:55;;;;;;;2.20;1.15;;;33.10;96.70;;;;;;5044249;28;20041;-79
2022/09/05 13:37:47;;;;;;;3.67;1.08;;;33.20;96.70;;;;;;5026868;28;20056;-77
2022/09/05 13:40:57;;;;;;;4.10;1.45;;;33.50;96.70;;;;;;5040448;28;20925;-76
2022/09/05 13:43:30;;;;;;;4.15;1.27;;;33.60;96.70;;;;;;5036605;28;20038;-76
2022/09/05 13:46:10;;;;;;;2.97;1.38;;;33.70;96.70;;;;;;5040702;28;20041;-79
2022/09/05 13:48:50;;;;;;;1.70;0.88;;;33.90;96.70;;;;;;5044920;28;20067;-77
2022/09/05 13:51:43;;;;;;;4.28;1.42;;;34.20;96.70;;;;;;5040849;28;20068;-77
2022/09/05 13:54:37;;;;;;;3.20;1.05;;;34.30;96.70;;;;;;5043566;28;20049;-77
2022/09/05 13:57:30;;;;;;;4.07;1.60;;;34.30;96.70;;;;;;5041812;28;20052;-77
2022/09/05 14:00:24;;;;;;;3.78;1.58;;;34.40;96.70;;;;;;5041637;28;20663;-77
2022/09/05 14:03:35;;;;;;;2.65;1.33;;;34.60;96.70;;;;;;5040094;28;20037;-77
2022/09/05 14:06:48;;;;;;;3.05;1.52;;;34.90;96.70;;;;;;5042278;28;20041;-77
2022/09/05 14:09:33;;;;;;;2.33;1.20;;;35.10;96.70;;;;;;5034890;28;20732;-77
2022/09/05 14:12:16;;;;;;;3.92;1.35;;;35.20;96.70;;;;;;5040694;28;20040;-77
2022/09/05 14:14:48;;;;;;;2.63;1.20;;;35.50;96.70;;;;;;5039600;28;20057;-77
2022/09/05 14:18:00;;;;;;;6.35;1.90;;;35.80;96.30;;;;;;5032504;28;20595;-77
2022/09/05 14:23:52;;;;;;;2.08;1.35;;;35.70;96.40;;;;;;5041275;28;20480;-77
2022/09/05 14:26:25;;;;;;;2.47;1.10;;;35.60;96.70;;;;;;5029255;28;20645;-77
2022/09/05 14:29:15;;;;;;;3.00;1.33;;;35.80;96.00;;;;;;5042274;28;20037;-77
2022/09/05 14:32:03;;;;;;;2.85;1.35;;;35.90;96.30;;;;;;5042035;28;20048;-77
2022/09/05 14:35:04;;;;;;;4.70;1.40;;;36.10;94.90;;;;;;5026583;28;21017;-77
2022/09/05 14:38:01;;;;;;;4.60;1.60;;;36.10;92.90;;;;;;5036884;28;20056;-77
2022/09/05 14:41:11;;;;;;;;;;;36.00;91.90;;;;;;5043516;28;20056;-77
2022/09/05 14:44:14;;;;;;;4.70;1.30;;;36.40;91.40;;;;;;5039000;28;20336;-78
2022/09/05 14:47:05;;;;;;;4.18;1.55;;;36.40;90.50;;;;;;5041986;28;20114;-77
2022/09/05 14:50:10;;;;;;;4.00;1.00;;;36.60;89.60;;;;;;5040965;28;20049;-77